createdAt,value
2022-08-05T00:01:00.975Z,94.00
2022-08-05T00:03:57.511Z,94.20
2022-08-05T00:06:32.840Z,94.60
2022-08-05T00:17:54.816Z,96.30
2022-08-05T00:20:22.026Z,96.50
2022-08-05T00:22:59.644Z,96.60
2022-08-05T00:25:45.412Z,96.90
2022-08-05T00:28:14.475Z,97.10
2022-08-05T00:30:44.045Z,97.40
2022-08-05T00:33:15.684Z,97.40
2022-08-05T00:36:16.487Z,97.50
2022-08-05T00:38:46.300Z,97.50
2022-08-05T00:41:13.479Z,97.80
2022-08-05T00:43:49.662Z,97.90
2022-08-05T00:46:17.221Z,98.10
2022-08-05T00:49:04.736Z,98.30
2022-08-05T00:51:51.640Z,98.20
2022-08-05T00:54:19.372Z,98.10
2022-08-05T00:56:51.464Z,98.00
2022-08-05T00:59:19.051Z,98.20
2022-08-05T01:01:48.456Z,98.10
2022-08-05T01:04:20.293Z,98.00
2022-08-05T01:06:55.063Z,98.40
2022-08-05T01:09:22.850Z,98.80
2022-08-05T01:11:53.253Z,98.90
2022-08-05T01:14:45.245Z,98.80
2022-08-05T01:17:27.016Z,99.20
2022-08-05T01:20:10.505Z,99.10
2022-08-05T01:22:58.785Z,99.20
2022-08-05T01:26:00.238Z,99.60
2022-08-05T01:28:42.847Z,99.20
2022-08-05T01:31:12.577Z,99.20
2022-08-05T01:33:53.482Z,99.00
2022-08-05T01:36:28.118Z,99.00
2022-08-05T01:38:57.036Z,99.70
2022-08-05T01:41:34.810Z,99.30
2022-08-05T01:44:04.007Z,99.90
2022-08-05T01:46:42.332Z,99.90
2022-08-05T01:49:22.798Z,99.90
2022-08-05T01:51:52.305Z,99.90
2022-08-05T01:54:25.548Z,99.90
2022-08-05T01:58:12.867Z,99.90
2022-08-05T01:59:47.037Z,99.90
2022-08-05T02:02:16.057Z,99.90
2022-08-05T02:04:46.108Z,99.90
2022-08-05T02:07:22.015Z,99.90
2022-08-05T02:09:50.964Z,99.90
2022-08-05T02:12:38.810Z,99.90
2022-08-05T02:15:19.600Z,99.90
2022-08-05T02:18:27.885Z,99.90
2022-08-05T02:20:53.884Z,99.90
2022-08-05T02:23:33.565Z,99.90
2022-08-05T02:26:05.088Z,99.90
2022-08-05T02:28:41.690Z,99.90
2022-08-05T02:31:21.014Z,99.90
2022-08-05T02:34:01.444Z,99.90
2022-08-05T02:36:31.634Z,99.90
2022-08-05T02:39:01.907Z,99.90
2022-08-05T02:41:42.884Z,99.90
2022-08-05T02:44:18.460Z,99.90
2022-08-05T02:46:58.570Z,99.90
2022-08-05T02:49:35.709Z,99.90
2022-08-05T02:52:09.361Z,99.90
2022-08-05T02:54:41.171Z,99.90
2022-08-05T02:58:10.789Z,99.90
2022-08-05T03:00:02.891Z,99.90
2022-08-05T03:02:34.898Z,99.90
2022-08-05T03:05:03.040Z,99.90
2022-08-05T03:08:00.583Z,99.90
2022-08-05T03:10:24.538Z,99.90
2022-08-05T03:12:54.139Z,99.90
2022-08-05T03:15:23.414Z,99.90
2022-08-05T03:17:55.754Z,99.90
2022-08-05T03:20:24.442Z,99.90
2022-08-05T03:22:55.167Z,99.90
2022-08-05T03:25:33.016Z,99.90
2022-08-05T03:28:03.331Z,99.90
2022-08-05T03:30:34.893Z,99.90
2022-08-05T03:33:03.736Z,99.90
2022-08-05T03:35:34.059Z,99.90
2022-08-05T03:38:09.088Z,99.90
2022-08-05T03:40:45.052Z,99.90
2022-08-05T03:43:59.695Z,99.90
2022-08-05T03:46:03.551Z,99.90
2022-08-05T03:48:35.196Z,99.90
2022-08-05T03:52:49.071Z,99.90
2022-08-05T03:55:50.310Z,99.90
2022-08-05T03:57:16.461Z,99.90
2022-08-05T03:59:55.866Z,99.90
2022-08-05T04:02:37.536Z,99.90
2022-08-05T04:05:10.127Z,99.90
2022-08-05T04:07:57.416Z,99.90
2022-08-05T04:10:37.191Z,99.90
2022-08-05T04:13:07.432Z,99.90
2022-08-05T04:15:36.128Z,99.90
2022-08-05T04:18:09.296Z,99.90
2022-08-05T04:20:36.761Z,99.90
2022-08-05T04:23:04.151Z,99.90
2022-08-05T04:25:56.693Z,99.90
2022-08-05T04:28:19.874Z,99.90
2022-08-05T04:30:58.294Z,99.90
2022-08-05T04:33:54.752Z,99.90
2022-08-05T04:36:46.121Z,99.90
2022-08-05T04:39:04.530Z,99.90
2022-08-05T04:41:37.262Z,99.90
2022-08-05T04:44:09.250Z,99.90
2022-08-05T04:46:38.687Z,99.90
2022-08-05T04:49:12.098Z,99.60
2022-08-05T04:51:41.759Z,98.70
2022-08-05T04:54:09.979Z,99.50
2022-08-05T04:56:37.381Z,99.10
2022-08-05T04:59:22.429Z,97.90
2022-08-05T05:02:08.118Z,97.10
2022-08-05T05:04:47.581Z,97.00
2022-08-05T05:07:17.115Z,97.70
2022-08-05T05:09:45.475Z,97.60
2022-08-05T05:12:13.038Z,97.20
2022-08-05T05:14:49.181Z,97.60
2022-08-05T05:17:22.723Z,97.10
2022-08-05T05:19:53.073Z,97.30
2022-08-05T05:22:24.032Z,97.50
2022-08-05T05:25:00.203Z,97.30
2022-08-05T05:27:41.684Z,97.20
2022-08-05T05:30:31.073Z,97.30
2022-08-05T05:33:08.901Z,97.30
2022-08-05T05:35:44.228Z,97.00
2022-08-05T05:38:13.207Z,97.40
2022-08-05T05:40:49.883Z,97.30
2022-08-05T05:43:28.155Z,96.70
2022-08-05T05:46:10.692Z,96.60
2022-08-05T05:48:44.688Z,96.60
2022-08-05T05:51:19.490Z,96.30
2022-08-05T05:53:57.292Z,96.50
2022-08-05T05:56:32.271Z,96.20
2022-08-05T05:59:03.343Z,96.10
2022-08-05T06:01:37.005Z,96.20
2022-08-05T06:04:11.695Z,95.60
2022-08-05T06:06:42.726Z,95.50
2022-08-05T06:09:17.577Z,95.50
2022-08-05T06:12:00.035Z,95.10
2022-08-05T06:14:31.187Z,95.00
2022-08-05T06:16:59.417Z,95.40
2022-08-05T06:19:34.447Z,95.60
2022-08-05T06:22:07.832Z,94.50
2022-08-05T06:24:41.480Z,94.50
2022-08-05T06:27:17.251Z,93.80
2022-08-05T06:30:16.855Z,93.60
2022-08-05T06:32:50.610Z,93.30
2022-08-05T06:36:03.123Z,93.70
2022-08-05T06:38:11.436Z,93.80
2022-08-05T06:40:42.099Z,94.30
2022-08-05T06:43:59.116Z,94.30
2022-08-05T06:46:03.603Z,94.50
2022-08-05T06:48:53.432Z,94.50
2022-08-05T06:51:30.092Z,94.10
2022-08-05T06:54:02.356Z,93.70
2022-08-05T06:56:34.338Z,92.80
2022-08-05T06:59:03.596Z,93.20
2022-08-05T07:01:35.944Z,93.10
2022-08-05T07:04:06.075Z,92.80
2022-08-05T07:06:33.759Z,92.70
2022-08-05T07:09:04.264Z,92.70
2022-08-05T07:11:36.777Z,92.90
2022-08-05T07:14:28.934Z,92.20
2022-08-05T07:18:01.401Z,92.20
2022-08-05T07:22:38.320Z,91.60
2022-08-05T07:25:23.191Z,90.30
2022-08-05T07:28:00.647Z,90.30
2022-08-05T07:30:38.934Z,90.90
2022-08-05T07:33:16.135Z,90.60
2022-08-05T07:36:04.848Z,90.50
2022-08-05T07:38:43.748Z,90.40
2022-08-05T07:42:14.449Z,91.50
2022-08-05T07:44:14.070Z,90.00
2022-08-05T07:46:48.639Z,88.00
2022-08-05T07:49:18.289Z,87.70
2022-08-05T07:51:53.010Z,90.00
2022-08-05T07:54:26.660Z,90.20
2022-08-05T07:57:01.626Z,86.90
2022-08-05T07:59:42.431Z,85.70
2022-08-05T08:02:15.719Z,87.00
2022-08-05T08:04:48.264Z,87.60
2022-08-05T08:07:17.688Z,86.90
2022-08-05T08:09:46.589Z,86.00
2022-08-05T08:12:35.549Z,88.40
2022-08-05T08:15:09.382Z,86.40
2022-08-05T08:17:49.777Z,85.60
2022-08-05T08:20:43.194Z,86.20
2022-08-05T08:24:03.315Z,84.50
2022-08-05T08:26:06.029Z,86.00
2022-08-05T08:28:37.547Z,82.40
2022-08-05T08:31:23.005Z,84.00
2022-08-05T08:33:54.078Z,81.90
2022-08-05T08:36:39.262Z,83.80
2022-08-05T08:39:15.194Z,81.70
2022-08-05T08:41:52.009Z,81.20
2022-08-05T08:45:19.496Z,82.10
2022-08-05T08:48:05.811Z,83.50
2022-08-05T08:50:30.161Z,82.40
2022-08-05T08:53:08.214Z,82.00
2022-08-05T08:56:02.586Z,82.50
2022-08-05T08:58:43.506Z,83.80
2022-08-05T09:01:17.445Z,82.30
2022-08-05T09:03:55.611Z,82.10
2022-08-05T09:06:29.318Z,85.90
2022-08-05T09:08:58.923Z,81.30
2022-08-05T09:11:50.686Z,84.90
2022-08-05T09:14:56.937Z,81.10
2022-08-05T09:17:01.763Z,80.10
2022-08-05T09:19:36.607Z,80.70
2022-08-05T09:22:23.111Z,81.20
2022-08-05T09:25:24.050Z,80.00
2022-08-05T09:28:04.345Z,81.10
2022-08-05T09:30:34.999Z,81.20
2022-08-05T09:33:45.960Z,83.60
2022-08-05T09:36:16.368Z,79.90
2022-08-05T09:38:58.755Z,81.10
2022-08-05T09:41:26.557Z,80.10
2022-08-05T09:44:00.574Z,81.60
2022-08-05T09:46:34.964Z,81.80
2022-08-05T09:49:19.411Z,81.90
2022-08-05T09:51:48.938Z,80.20
2022-08-05T09:54:29.032Z,79.40
2022-08-05T09:56:57.569Z,80.90
2022-08-05T09:59:27.760Z,79.80
2022-08-05T10:01:58.356Z,79.50
2022-08-05T10:04:39.744Z,79.10
2022-08-05T10:07:20.598Z,84.00
2022-08-05T10:10:14.264Z,81.80
2022-08-05T10:12:54.337Z,82.10
2022-08-05T10:15:25.976Z,82.50
2022-08-05T10:18:12.955Z,84.20
2022-08-05T10:20:44.230Z,79.70
2022-08-05T10:23:34.630Z,81.40
2022-08-05T10:26:13.933Z,81.50
2022-08-05T10:28:49.136Z,80.80
2022-08-05T10:32:54.505Z,80.80
2022-08-05T10:34:10.184Z,80.00
2022-08-05T10:36:42.178Z,80.00
2022-08-05T10:40:03.062Z,80.30
2022-08-05T10:44:48.936Z,81.40
2022-08-05T10:47:26.864Z,80.50
2022-08-05T10:53:00.437Z,78.50
2022-08-05T10:58:35.719Z,80.40
2022-08-05T11:01:28.055Z,79.80
2022-08-05T11:04:05.307Z,81.80
2022-08-05T11:06:35.633Z,82.60
2022-08-05T11:09:31.896Z,83.50
2022-08-05T11:12:01.529Z,83.10
2022-08-05T11:17:57.836Z,85.10
2022-08-05T11:24:04.590Z,82.30
2022-08-05T11:26:32.939Z,82.30
2022-08-05T11:29:12.700Z,85.40
2022-08-05T11:31:54.202Z,85.00
2022-08-05T11:34:51.526Z,84.40
2022-08-05T11:38:29.985Z,84.30
2022-08-05T11:41:01.053Z,85.90
2022-08-05T11:44:00.735Z,85.40
2022-08-05T11:49:01.663Z,79.80
2022-08-05T11:51:44.648Z,81.80
2022-08-05T14:05:15.353Z,85.00
2022-08-05T14:08:03.184Z,84.20
2022-08-05T14:10:46.310Z,85.30
2022-08-05T14:13:16.368Z,85.60
2022-08-05T14:16:06.108Z,83.20
2022-08-05T14:18:47.806Z,84.60
2022-08-05T14:22:09.151Z,84.50
2022-08-05T14:24:14.498Z,84.60
2022-08-05T14:27:17.220Z,83.50
2022-08-05T14:29:44.956Z,83.30
2022-08-05T14:32:27.146Z,84.30
2022-08-05T14:59:29.761Z,85.20
2022-08-05T15:02:14.953Z,84.70
2022-08-05T15:04:47.997Z,85.60
2022-08-05T15:18:21.538Z,87.90
2022-08-05T15:20:53.788Z,88.30
2022-08-05T15:23:25.722Z,88.60
2022-08-05T15:25:56.621Z,87.90
2022-08-05T15:28:38.371Z,88.50
2022-08-05T15:31:22.512Z,87.80
2022-08-05T15:34:19.353Z,88.00
2022-08-05T15:36:50.264Z,88.10
2022-08-05T15:40:59.707Z,89.40
2022-08-05T15:42:28.557Z,89.80
2022-08-05T15:44:57.280Z,90.30
2022-08-05T15:47:35.812Z,90.10
2022-08-05T15:50:08.294Z,90.30
2022-08-05T15:53:09.234Z,90.30
2022-08-05T15:56:09.122Z,90.30
2022-08-05T15:58:46.564Z,90.80
2022-08-05T16:01:20.266Z,89.40
2022-08-05T16:04:05.825Z,90.10
2022-08-05T16:06:41.333Z,90.10
2022-08-05T16:09:09.838Z,90.60
2022-08-05T16:15:34.509Z,90.60
2022-08-05T16:18:09.181Z,90.50
2022-08-05T16:20:40.712Z,90.40
2022-08-05T16:23:12.135Z,90.60
2022-08-05T16:25:42.379Z,90.50
2022-08-05T16:28:16.762Z,90.60
2022-08-05T16:30:50.399Z,91.20
2022-08-05T16:33:25.675Z,90.50
2022-08-05T16:36:01.525Z,90.50
2022-08-05T16:38:39.329Z,90.50
2022-08-05T16:42:14.278Z,90.80
2022-08-05T16:44:25.707Z,91.10
2022-08-05T16:46:57.930Z,93.10
2022-08-05T16:49:32.383Z,92.00
2022-08-05T16:52:05.757Z,91.70
2022-08-05T16:54:43.877Z,91.70
2022-08-05T16:57:14.978Z,92.20
2022-08-05T17:00:07.753Z,90.50
2022-08-05T17:02:38.790Z,90.60
2022-08-05T17:05:12.398Z,91.50
2022-08-05T17:07:54.439Z,90.90
2022-08-05T17:10:26.453Z,90.70
2022-08-05T17:12:59.241Z,90.90
2022-08-05T17:15:48.184Z,91.20
2022-08-05T17:18:20.538Z,91.50
2022-08-05T17:20:50.395Z,92.30
2022-08-05T17:24:03.545Z,92.60
2022-08-05T17:26:11.972Z,92.90
2022-08-05T17:28:51.268Z,93.30
2022-08-05T17:31:56.536Z,93.50
2022-08-05T17:34:30.175Z,94.00
2022-08-05T17:37:00.560Z,93.40
2022-08-05T17:39:39.189Z,93.50
2022-08-05T17:42:28.385Z,93.10
2022-08-05T17:45:18.012Z,92.90
2022-08-05T17:47:56.227Z,93.20
2022-08-05T17:50:35.727Z,93.10
2022-08-05T17:53:08.713Z,93.50
2022-08-05T17:55:39.997Z,93.30
2022-08-05T17:58:21.568Z,93.20
2022-08-05T18:01:08.222Z,92.60
2022-08-05T18:03:58.425Z,92.40
2022-08-05T18:06:32.485Z,92.10
2022-08-05T18:09:04.076Z,91.90
2022-08-05T18:11:36.925Z,92.40
2022-08-05T18:14:13.195Z,92.60
2022-08-05T18:16:51.422Z,92.60
2022-08-05T18:19:26.083Z,92.70
2022-08-05T18:22:08.567Z,92.90
2022-08-05T18:24:41.029Z,93.10
2022-08-05T18:27:20.918Z,93.10
2022-08-05T18:29:54.702Z,93.20
2022-08-05T18:32:33.488Z,92.70
2022-08-05T18:35:05.466Z,92.80
2022-08-05T18:37:40.404Z,92.40
2022-08-05T18:40:34.519Z,92.50
2022-08-05T18:43:09.025Z,92.90
2022-08-05T18:45:54.090Z,93.20
2022-08-05T18:48:31.563Z,93.00
2022-08-05T18:52:04.626Z,92.70
2022-08-05T18:54:20.697Z,92.60
2022-08-05T18:56:51.089Z,92.80
2022-08-05T18:59:43.441Z,92.80
2022-08-05T19:02:26.459Z,92.80
2022-08-05T19:05:02.500Z,92.90
2022-08-05T19:08:00.372Z,93.10
2022-08-05T19:10:32.072Z,93.10
2022-08-05T19:13:02.598Z,93.50
2022-08-05T19:15:58.828Z,93.70
2022-08-05T19:18:22.969Z,94.00
2022-08-05T19:20:56.468Z,94.40
2022-08-05T19:24:07.209Z,94.50
2022-08-05T19:26:17.834Z,94.60
2022-08-05T19:28:48.013Z,94.40
2022-08-05T19:31:19.270Z,94.70
2022-08-05T19:33:56.500Z,96.00
2022-08-05T19:36:31.083Z,95.70
2022-08-05T19:39:08.046Z,95.70
2022-08-05T19:42:07.281Z,95.70
2022-08-05T19:44:44.703Z,96.60
2022-08-05T19:47:15.343Z,96.90
2022-08-05T19:50:10.525Z,97.00
2022-08-05T19:52:42.555Z,97.30
2022-08-05T19:56:12.477Z,97.80
2022-08-05T19:58:24.536Z,97.30
2022-08-05T20:00:58.342Z,97.00
2022-08-05T20:03:36.322Z,97.40
2022-08-05T20:06:28.684Z,97.60
2022-08-05T20:09:14.058Z,98.00
2022-08-05T20:11:48.304Z,99.90
2022-08-05T20:14:26.979Z,98.20
2022-08-05T20:17:01.617Z,98.50
2022-08-05T20:19:41.454Z,98.80
2022-08-05T20:22:11.909Z,98.70
2022-08-05T20:24:41.293Z,99.50
2022-08-05T20:27:13.049Z,97.70
2022-08-05T20:29:52.306Z,98.10
2022-08-05T20:32:29.997Z,98.40
2022-08-05T20:34:58.344Z,97.40
2022-08-05T20:38:06.362Z,97.20
2022-08-05T20:40:17.996Z,97.00
2022-08-05T20:42:48.402Z,96.80
2022-08-05T20:45:16.861Z,96.70
2022-08-05T20:47:50.008Z,96.80
2022-08-05T20:50:28.038Z,96.70
2022-08-05T20:53:06.932Z,97.90
2022-08-05T20:55:56.192Z,98.70
2022-08-05T20:58:37.814Z,98.60
2022-08-05T21:01:08.596Z,99.20
2022-08-05T21:03:37.364Z,99.90
2022-08-05T21:06:27.876Z,99.90
2022-08-05T21:08:59.273Z,99.90
2022-08-05T21:12:07.280Z,99.90
2022-08-05T21:14:21.558Z,99.90
2022-08-05T21:16:55.030Z,99.90
2022-08-05T21:19:24.479Z,99.90
2022-08-05T21:22:03.594Z,99.90
2022-08-05T21:24:32.224Z,99.90
2022-08-05T21:27:02.219Z,99.90
2022-08-05T21:29:40.663Z,99.90
2022-08-05T21:32:09.388Z,99.60
2022-08-05T21:34:45.635Z,99.80
2022-08-05T21:37:41.217Z,99.50
2022-08-05T21:40:13.649Z,99.30
2022-08-05T21:42:52.025Z,99.30
2022-08-05T21:45:51.884Z,99.40
2022-08-05T21:48:22.573Z,99.60
2022-08-05T21:50:57.289Z,99.80
2022-08-05T21:53:37.524Z,99.90
2022-08-05T21:56:16.689Z,99.90
2022-08-05T21:58:56.912Z,99.90
2022-08-05T22:01:28.485Z,99.90
2022-08-05T22:04:07.849Z,99.90
2022-08-05T22:06:50.344Z,99.90
2022-08-05T22:09:22.302Z,99.90
2022-08-05T22:11:54.739Z,99.90
2022-08-05T22:14:35.560Z,99.90
2022-08-05T22:17:07.512Z,99.90
2022-08-05T22:22:29.820Z,99.90
2022-08-05T22:25:31.065Z,99.90
2022-08-05T22:28:12.116Z,99.90
2022-08-05T22:30:56.831Z,99.90
2022-08-05T22:33:56.788Z,99.90
2022-08-05T22:36:25.439Z,99.90
2022-08-05T22:39:09.105Z,99.90
2022-08-05T22:42:10.312Z,99.90
2022-08-05T22:44:32.059Z,99.90
2022-08-05T22:47:09.528Z,99.90
2022-08-05T22:50:20.595Z,99.90
2022-08-05T22:52:34.359Z,99.90
2022-08-05T22:55:19.221Z,99.90
2022-08-05T22:57:53.419Z,99.90
2022-08-05T23:00:26.512Z,99.90
2022-08-05T23:02:58.069Z,99.90
2022-08-05T23:05:29.753Z,99.90
2022-08-05T23:08:05.986Z,99.90
2022-08-05T23:10:37.962Z,99.90
2022-08-05T23:13:10.268Z,99.90
2022-08-05T23:15:39.101Z,99.90
2022-08-05T23:18:11.608Z,99.90
2022-08-05T23:20:46.384Z,99.90
2022-08-05T23:23:15.110Z,99.90
2022-08-05T23:25:56.246Z,99.90
2022-08-05T23:28:30.808Z,99.90
2022-08-05T23:31:17.392Z,99.90
2022-08-05T23:34:05.545Z,99.90
2022-08-05T23:36:44.576Z,99.90
2022-08-05T23:39:31.755Z,99.90
2022-08-05T23:42:08.613Z,99.90
2022-08-05T23:44:45.599Z,99.90
2022-08-05T23:47:25.029Z,99.90
2022-08-05T23:50:01.082Z,99.90
2022-08-05T23:52:32.344Z,99.90
2022-08-05T23:55:09.235Z,99.90
2022-08-05T23:57:48.886Z,99.90
